createdAt,value
2018-12-27T00:00:03.559Z,25.3
2018-12-27T00:01:03.036Z,25.3
2018-12-27T00:02:03.239Z,25.64
2018-12-27T00:03:03.534Z,25.64
2018-12-27T00:04:03.123Z,25.64
2018-12-27T00:05:03.465Z,25.91
2018-12-27T00:06:02.966Z,25.66
2018-12-27T00:07:02.641Z,26.03
2018-12-27T00:08:03.601Z,26.03
2018-12-27T00:09:04.181Z,26.12
2018-12-27T00:10:03.509Z,25.51
2018-12-27T00:11:03.181Z,25.51
2018-12-27T00:12:03.042Z,0
2018-12-27T00:13:03.072Z,26.92
2018-12-27T00:14:03.674Z,24.79
2018-12-27T00:15:03.674Z,25.58
2018-12-27T00:16:03.178Z,25.99
2018-12-27T00:17:02.852Z,25.57
2018-12-27T00:18:03.096Z,28.16
2018-12-27T00:19:03.100Z,25.29
2018-12-27T00:20:03.618Z,27.84
2018-12-27T00:21:03.632Z,27.84
2018-12-27T00:22:03.342Z,25.75
2018-12-27T00:23:03.426Z,27.19
2018-12-27T00:24:03.396Z,28.25
2018-12-27T00:25:02.925Z,26.59
2018-12-27T00:26:02.902Z,29.21
2018-12-27T00:27:03.083Z,28.75
2018-12-27T00:28:02.667Z,27.32
2018-12-27T00:29:03.147Z,26.89
2018-12-27T00:30:03.531Z,26.48
2018-12-27T00:31:03.219Z,27.16
2018-12-27T00:32:03.497Z,27.84
2018-12-27T00:33:03.579Z,28.4
2018-12-27T00:34:03.205Z,27.85
2018-12-27T00:35:03.691Z,27.75
2018-12-27T00:36:03.188Z,27.82
2018-12-27T00:37:03.348Z,28.52
2018-12-27T00:38:03.802Z,25.06
2018-12-27T00:39:02.932Z,26.21
2018-12-27T00:40:03.909Z,24.98
2018-12-27T00:41:03.715Z,26.89
2018-12-27T00:42:03.775Z,26.55
2018-12-27T00:43:02.996Z,26.32
2018-12-27T00:44:02.752Z,27.67
2018-12-27T00:45:02.951Z,27.55
2018-12-27T00:46:02.998Z,27.2
2018-12-27T00:47:03.372Z,26.62
2018-12-27T00:48:03.146Z,28.56
2018-12-27T00:49:03.285Z,28.56
2018-12-27T00:50:03.821Z,27.27
2018-12-27T00:51:03.407Z,27.05
2018-12-27T00:52:02.721Z,27.05
2018-12-27T00:53:03.300Z,28.71
2018-12-27T00:54:02.830Z,27.07
2018-12-27T00:55:03.031Z,28.75
2018-12-27T00:56:03.294Z,28.36
2018-12-27T00:57:03.387Z,27.73
2018-12-27T00:58:03.129Z,27.03
2018-12-27T00:59:03.416Z,24.87
2018-12-27T01:00:02.916Z,25.12
2018-12-27T01:01:03.454Z,26.61
2018-12-27T01:02:02.834Z,26.86
2018-12-27T01:03:11.536Z,0
2018-12-27T01:04:02.661Z,25.43
2018-12-27T01:05:03.323Z,23.95
2018-12-27T01:06:03.598Z,24.74
2018-12-27T01:07:02.794Z,23.12
2018-12-27T01:08:03.657Z,23.85
2018-12-27T01:09:03.805Z,24.96
2018-12-27T01:10:02.828Z,25.72
2018-12-27T01:11:03.127Z,25.83
2018-12-27T01:12:02.628Z,26.29
2018-12-27T01:13:03.138Z,26.34
2018-12-27T01:14:02.989Z,25.78
2018-12-27T01:15:03.814Z,25.53
2018-12-27T01:16:02.716Z,27.21
2018-12-27T01:17:03.808Z,28.45
2018-12-27T01:18:03.656Z,26.37
2018-12-27T01:19:03.354Z,25.94
2018-12-27T01:20:03.329Z,27.32
2018-12-27T01:21:03.277Z,25.59
2018-12-27T01:22:03.607Z,26.22
2018-12-27T01:23:03.685Z,25.84
2018-12-27T01:24:03.287Z,27.95
2018-12-27T01:25:03.310Z,26.36
2018-12-27T01:26:03.139Z,28.82
2018-12-27T01:27:03.050Z,26.11
2018-12-27T01:28:03.012Z,25.61
2018-12-27T01:29:03.799Z,37.24
2018-12-27T01:30:02.940Z,31.76
2018-12-27T01:31:03.667Z,27.61
2018-12-27T01:32:03.290Z,26.64
2018-12-27T01:33:03.707Z,25.25
2018-12-27T01:34:03.156Z,24.77
2018-12-27T01:35:03.748Z,23.94
2018-12-27T01:36:03.666Z,25.96
2018-12-27T01:37:02.897Z,25.22
2018-12-27T01:38:02.750Z,25.22
2018-12-27T01:39:03.080Z,25.55
2018-12-27T01:40:03.671Z,24.78
2018-12-27T01:41:03.791Z,25.54
2018-12-27T01:42:03.416Z,26.21
2018-12-27T01:43:03.560Z,27.05
2018-12-27T01:44:02.803Z,24.36
2018-12-27T01:45:02.801Z,23.66
2018-12-27T01:46:03.345Z,24.79
2018-12-27T01:47:03.451Z,24.02
2018-12-27T01:48:02.999Z,23.28
2018-12-27T01:49:03.425Z,24.25
2018-12-27T01:50:03.329Z,24.68
2018-12-27T01:51:03.375Z,24.74
2018-12-27T01:52:03.520Z,23.48
2018-12-27T01:53:02.996Z,23.93
2018-12-27T01:54:02.937Z,25.68
2018-12-27T01:55:03.017Z,24.28
2018-12-27T01:56:05.036Z,25.16
2018-12-27T01:57:03.441Z,24.91
2018-12-27T01:58:03.742Z,21.72
2018-12-27T01:59:03.100Z,22.62
2018-12-27T02:00:03.609Z,21.61
2018-12-27T02:01:03.749Z,22.92
2018-12-27T02:02:02.669Z,23.68
2018-12-27T02:03:03.335Z,21.78
2018-12-27T02:04:03.118Z,22.85
2018-12-27T02:05:03.363Z,24.69
2018-12-27T02:06:03.158Z,24.44
2018-12-27T02:07:03.093Z,24.35
2018-12-27T02:08:03.246Z,24.96
2018-12-27T02:09:03.018Z,23.55
2018-12-27T02:10:02.945Z,25.04
2018-12-27T02:11:03.582Z,24.16
2018-12-27T02:12:03.151Z,24.76
2018-12-27T02:13:03.422Z,24.49
2018-12-27T02:14:03.646Z,25.09
2018-12-27T02:15:04.758Z,25.19
2018-12-27T02:16:03.675Z,23.18
2018-12-27T02:17:03.445Z,27.42
2018-12-27T02:18:03.354Z,25.15
2018-12-27T02:19:03.372Z,23
2018-12-27T02:20:03.586Z,23.78
2018-12-27T02:21:02.701Z,27.23
2018-12-27T02:22:03.600Z,25.41
2018-12-27T02:23:03.408Z,26.71
2018-12-27T02:24:03.277Z,25.42
2018-12-27T02:25:03.353Z,23.01
2018-12-27T02:26:03.718Z,23.01
2018-12-27T02:27:02.838Z,23.65
2018-12-27T02:28:02.874Z,24.77
2018-12-27T02:29:02.846Z,24.77
2018-12-27T02:30:03.158Z,26.62
2018-12-27T02:31:02.996Z,24.92
2018-12-27T02:32:02.808Z,25.52
2018-12-27T02:33:03.638Z,25.16
2018-12-27T02:34:03.944Z,23.71
2018-12-27T02:35:03.318Z,24.94
2018-12-27T02:36:03.578Z,24.78
2018-12-27T02:37:03.528Z,22.42
2018-12-27T02:38:03.539Z,25.04
2018-12-27T02:39:02.880Z,26.51
2018-12-27T02:40:03.272Z,26.63
2018-12-27T02:41:03.393Z,24.97
2018-12-27T02:42:03.020Z,23.94
2018-12-27T02:43:03.508Z,26.24
2018-12-27T02:44:06.750Z,25.5
2018-12-27T02:45:03.816Z,24.61
2018-12-27T02:46:03.056Z,24.48
2018-12-27T02:47:03.094Z,24.52
2018-12-27T02:48:03.562Z,24.75
2018-12-27T02:49:03.113Z,26.01
2018-12-27T02:50:02.977Z,26.26
2018-12-27T02:51:03.386Z,24.42
2018-12-27T02:52:03.799Z,22.96
2018-12-27T02:53:03.212Z,24.5
2018-12-27T02:54:04.050Z,24.15
2018-12-27T02:55:03.261Z,23.91
2018-12-27T02:56:03.423Z,25.03
2018-12-27T02:57:03.484Z,25.67
2018-12-27T02:58:03.306Z,24.63
2018-12-27T02:59:03.010Z,25.13
2018-12-27T03:00:03.147Z,23.94
2018-12-27T03:01:03.697Z,24.09
2018-12-27T03:02:03.398Z,26.56
2018-12-27T03:03:03.054Z,26.08
2018-12-27T03:04:03.830Z,25.78
2018-12-27T03:05:03.656Z,26.33
2018-12-27T03:06:03.669Z,26.11
2018-12-27T03:07:02.895Z,24.88
2018-12-27T03:08:03.439Z,26.17
2018-12-27T03:09:03.879Z,24.03
2018-12-27T03:10:03.266Z,25.05
2018-12-27T03:11:03.080Z,24.16
2018-12-27T03:12:03.247Z,26.99
2018-12-27T03:13:03.062Z,23.95
2018-12-27T03:14:03.665Z,25.52
2018-12-27T03:15:03.474Z,25.52
2018-12-27T03:16:03.667Z,25.09
2018-12-27T03:17:02.900Z,25.58
2018-12-27T03:18:02.806Z,25.35
2018-12-27T03:19:03.182Z,27.41
2018-12-27T03:20:03.001Z,25.71
2018-12-27T03:21:03.653Z,26.93
2018-12-27T03:22:03.432Z,23.18
2018-12-27T03:23:03.625Z,25.79
2018-12-27T03:24:03.692Z,23.93
2018-12-27T03:25:04.013Z,25.99
2018-12-27T03:26:03.192Z,24.48
2018-12-27T03:27:02.789Z,25.48
2018-12-27T03:28:02.948Z,26.82
2018-12-27T03:29:02.634Z,25.49
2018-12-27T03:30:03.768Z,25.41
2018-12-27T03:31:03.251Z,27.71
2018-12-27T03:32:02.807Z,25.11
2018-12-27T03:33:02.978Z,27.25
2018-12-27T03:34:03.059Z,27.12
2018-12-27T03:35:03.197Z,29.14
2018-12-27T03:36:02.801Z,24.96
2018-12-27T03:37:03.091Z,26.84
2018-12-27T03:38:03.298Z,25.01
2018-12-27T03:39:03.407Z,24.83
2018-12-27T03:40:03.392Z,24.95
2018-12-27T03:41:02.732Z,26.15
2018-12-27T03:42:02.700Z,25.86
2018-12-27T03:43:03.395Z,26.57
2018-12-27T03:44:03.363Z,26.75
2018-12-27T03:45:03.321Z,26.3
2018-12-27T03:46:02.876Z,24.57
2018-12-27T03:47:03.742Z,24.68
2018-12-27T03:48:02.747Z,21.98
2018-12-27T03:49:02.929Z,23.65
2018-12-27T03:50:02.956Z,23.59
2018-12-27T03:51:03.513Z,23.59
2018-12-27T03:52:03.540Z,23.7
2018-12-27T03:53:02.997Z,23.85
2018-12-27T03:54:03.310Z,23.18
2018-12-27T03:55:03.266Z,25.09
2018-12-27T03:56:03.200Z,23.77
2018-12-27T03:57:02.895Z,24.24
2018-12-27T03:58:02.802Z,24.68
2018-12-27T03:59:03.647Z,22.21
2018-12-27T04:00:03.707Z,21.83
2018-12-27T04:01:03.287Z,23.18
2018-12-27T04:02:03.697Z,24.19
2018-12-27T04:03:03.162Z,23.18
2018-12-27T04:04:03.393Z,23.18
2018-12-27T04:05:03.687Z,24.02
2018-12-27T04:06:02.729Z,24.02
2018-12-27T04:07:03.390Z,25.48
2018-12-27T04:08:03.155Z,28.06
2018-12-27T04:09:02.899Z,23.75
2018-12-27T04:10:03.295Z,24.9
2018-12-27T04:11:02.802Z,23.04
2018-12-27T04:12:03.766Z,27.89
2018-12-27T04:13:03.291Z,23.32
2018-12-27T04:14:03.219Z,22.96
2018-12-27T04:15:02.872Z,22.44
2018-12-27T04:16:02.817Z,23.21
2018-12-27T04:17:02.972Z,24.39
2018-12-27T04:18:04.444Z,24.39
2018-12-27T04:19:03.371Z,25.02
2018-12-27T04:20:03.130Z,22.42
2018-12-27T04:21:02.921Z,21.25
2018-12-27T04:22:03.285Z,22.41
2018-12-27T04:23:03.540Z,22.59
2018-12-27T04:24:02.885Z,23.83
2018-12-27T04:25:03.540Z,25.04
2018-12-27T04:26:03.391Z,26.46
2018-12-27T04:27:03.470Z,24.99
2018-12-27T04:28:03.395Z,24.22
2018-12-27T04:29:03.037Z,25.65
2018-12-27T04:30:03.401Z,23.12
2018-12-27T04:31:03.122Z,21.62
2018-12-27T04:32:03.771Z,28.62
2018-12-27T04:33:03.773Z,25.9
2018-12-27T04:34:09.907Z,25.05
2018-12-27T04:35:02.887Z,26.11
2018-12-27T04:36:03.576Z,21.92
2018-12-27T04:37:03.174Z,24.31
2018-12-27T04:38:02.990Z,23.58
2018-12-27T04:39:03.897Z,22.17
2018-12-27T04:40:03.631Z,22.06
2018-12-27T04:41:03.134Z,20.75
2018-12-27T04:42:07.097Z,22.51
2018-12-27T04:43:02.757Z,22.68
2018-12-27T04:44:03.587Z,22.66
2018-12-27T04:45:03.773Z,24.29
2018-12-27T04:46:03.021Z,22.46
2018-12-27T04:47:03.705Z,25.58
2018-12-27T04:48:03.273Z,27.02
2018-12-27T04:49:02.797Z,26.16
2018-12-27T04:50:03.285Z,29.98
2018-12-27T04:51:03.722Z,29.98
2018-12-27T04:52:03.585Z,25.3
2018-12-27T04:53:03.760Z,25.3
2018-12-27T04:54:03.596Z,24.25
2018-12-27T04:55:03.195Z,24.99
2018-12-27T04:56:03.198Z,24.87
2018-12-27T04:57:03.717Z,25.19
2018-12-27T04:58:02.770Z,25.74
2018-12-27T04:59:03.471Z,22.81
2018-12-27T05:00:03.153Z,24.42
2018-12-27T05:01:02.920Z,25.05
2018-12-27T05:02:03.819Z,23.24
2018-12-27T05:03:02.810Z,23.28
2018-12-27T05:04:03.193Z,23.79
2018-12-27T05:05:03.548Z,25.9
2018-12-27T05:06:02.801Z,23.97
2018-12-27T05:07:03.560Z,22.36
2018-12-27T05:08:03.638Z,24.12
2018-12-27T05:09:03.669Z,25.95
2018-12-27T05:10:02.811Z,22.72
2018-12-27T05:11:03.350Z,24.99
2018-12-27T05:12:03.238Z,25.87
2018-12-27T05:13:03.635Z,23.03
2018-12-27T05:14:03.104Z,24.74
2018-12-27T05:15:03.068Z,27.44
2018-12-27T05:16:03.120Z,27.28
2018-12-27T05:17:03.287Z,25.31
2018-12-27T05:18:03.168Z,27.17
2018-12-27T05:19:03.535Z,28.01
2018-12-27T05:20:02.993Z,27.88
2018-12-27T05:21:03.424Z,30.11
2018-12-27T05:22:03.556Z,32.29
2018-12-27T05:23:03.063Z,25.32
2018-12-27T05:24:02.986Z,27.65
2018-12-27T05:25:03.696Z,26.23
2018-12-27T05:26:03.069Z,29.51
2018-12-27T05:27:03.504Z,26.51
2018-12-27T05:28:03.436Z,25.99
2018-12-27T05:29:03.405Z,26.59
2018-12-27T05:30:03.701Z,28.66
2018-12-27T05:31:03.796Z,28.72
2018-12-27T05:32:02.998Z,28.28
2018-12-27T05:33:03.390Z,28.29
2018-12-27T05:34:03.583Z,26.83
2018-12-27T05:35:03.507Z,25.98
2018-12-27T05:36:03.340Z,25.02
2018-12-27T05:37:02.951Z,28.93
2018-12-27T05:38:02.854Z,27.23
2018-12-27T05:39:03.292Z,25.69
2018-12-27T05:40:03.392Z,24.79
2018-12-27T05:41:03.014Z,25.87
2018-12-27T05:42:02.975Z,29.31
2018-12-27T05:43:03.112Z,29.31
2018-12-27T05:44:03.722Z,27.58
2018-12-27T05:45:03.266Z,27.65
2018-12-27T05:46:03.413Z,27.65
2018-12-27T05:47:03.113Z,27.34
2018-12-27T05:48:02.922Z,25.1
2018-12-27T05:49:03.747Z,28.91
2018-12-27T05:50:03.612Z,26.95
2018-12-27T05:51:02.932Z,27.89
2018-12-27T05:52:03.529Z,27.66
2018-12-27T05:53:03.218Z,30.21
2018-12-27T05:54:03.622Z,27.85
2018-12-27T05:55:03.782Z,30.11
2018-12-27T05:56:03.337Z,28.22
2018-12-27T05:57:03.144Z,27.56
2018-12-27T05:58:02.860Z,25.75
2018-12-27T05:59:03.536Z,24.92
2018-12-27T06:00:03.582Z,28.24
2018-12-27T06:01:03.527Z,27.46
2018-12-27T06:02:03.440Z,27.01
2018-12-27T06:03:03.393Z,29.91
2018-12-27T06:04:03.817Z,28.26
2018-12-27T06:05:03.474Z,30.44
2018-12-27T06:06:03.304Z,28.38
2018-12-27T06:07:03.725Z,27.66
2018-12-27T06:08:03.087Z,32.94
2018-12-27T06:09:02.998Z,27.48
2018-12-27T06:10:03.186Z,29.76
2018-12-27T06:11:03.192Z,27.82
2018-12-27T06:12:02.453Z,28.75
2018-12-27T06:13:03.784Z,27.69
2018-12-27T06:14:02.543Z,29.69
2018-12-27T06:15:02.985Z,28.45
2018-12-27T06:16:03.752Z,25.85
2018-12-27T06:17:03.083Z,27.48
2018-12-27T06:18:02.730Z,27.83
2018-12-27T06:19:03.179Z,30.22
2018-12-27T06:20:03.381Z,28.1
2018-12-27T06:21:04.608Z,32.2
2018-12-27T06:22:03.225Z,36.63
2018-12-27T06:23:03.393Z,36.54
2018-12-27T06:24:03.286Z,34.41
2018-12-27T06:25:02.765Z,31.87
2018-12-27T06:26:02.917Z,30.49
2018-12-27T06:27:03.693Z,34.64
2018-12-27T06:28:03.801Z,32.86
2018-12-27T06:29:03.855Z,31.61
2018-12-27T06:30:03.051Z,26.78
2018-12-27T06:31:03.878Z,26.78
2018-12-27T06:32:03.580Z,27.98
2018-12-27T06:33:03.335Z,28.49
2018-12-27T06:34:03.591Z,27.06
2018-12-27T06:35:03.581Z,30.65
2018-12-27T06:36:03.011Z,37.1
2018-12-27T06:37:03.480Z,30.51
2018-12-27T06:38:03.190Z,28.18
2018-12-27T06:39:03.398Z,27.07
2018-12-27T06:40:03.639Z,29.21
2018-12-27T06:41:03.807Z,29.11
2018-12-27T06:42:03.733Z,28.07
2018-12-27T06:43:03.302Z,30.58
2018-12-27T06:44:03.228Z,29.91
2018-12-27T06:45:03.151Z,30.96
2018-12-27T06:46:03.780Z,27.65
2018-12-27T06:47:04.116Z,28.58
2018-12-27T06:48:03.417Z,28.38
2018-12-27T06:49:03.397Z,27.27
2018-12-27T06:50:11.085Z,27.04
2018-12-27T06:51:03.848Z,28.64
2018-12-27T06:52:03.747Z,26.92
2018-12-27T06:53:03.337Z,29.45
2018-12-27T06:54:03.306Z,29.71
2018-12-27T06:55:03.388Z,32.98
2018-12-27T06:56:03.488Z,32.14
2018-12-27T06:57:03.695Z,28.94
2018-12-27T06:58:03.576Z,29.06
2018-12-27T06:59:03.053Z,32.04
2018-12-27T07:00:05.530Z,29.9
2018-12-27T07:01:03.784Z,30.22
2018-12-27T07:02:02.791Z,30.09
2018-12-27T07:03:03.255Z,27.68
2018-12-27T07:04:03.400Z,27.89
2018-12-27T07:05:03.357Z,25.08
2018-12-27T07:06:03.635Z,26.25
2018-12-27T07:07:02.849Z,26.66
2018-12-27T07:08:02.948Z,26.95
2018-12-27T07:09:03.690Z,28.25
2018-12-27T07:10:03.130Z,27.94
2018-12-27T07:11:03.140Z,27.29
2018-12-27T07:12:03.626Z,29.43
2018-12-27T07:13:03.271Z,27.95
2018-12-27T07:14:02.942Z,25.68
2018-12-27T07:15:02.929Z,25.46
2018-12-27T07:16:03.802Z,25.61
2018-12-27T07:17:03.366Z,23.85
2018-12-27T07:18:03.648Z,27.27
2018-12-27T07:19:03.734Z,27.22
2018-12-27T07:20:03.615Z,25.85
2018-12-27T07:21:03.085Z,25.85
2018-12-27T07:22:04.075Z,25.85
2018-12-27T07:23:02.855Z,33.82
2018-12-27T07:24:03.779Z,35.87
2018-12-27T07:25:03.521Z,34.39
2018-12-27T07:26:03.308Z,29.89
2018-12-27T07:27:02.973Z,26.52
2018-12-27T07:28:03.428Z,27.67
2018-12-27T07:29:02.973Z,28.86
2018-12-27T07:30:03.740Z,28.92
2018-12-27T07:31:03.774Z,27.41
2018-12-27T07:32:03.176Z,29.91
2018-12-27T07:33:04.338Z,26.62
2018-12-27T07:34:03.740Z,30.03
2018-12-27T07:35:03.497Z,24.44
2018-12-27T07:36:03.664Z,25.65
2018-12-27T07:37:03.303Z,27.16
2018-12-27T07:38:03.862Z,25.88
2018-12-27T07:39:03.310Z,27.02
2018-12-27T07:40:04.232Z,27.27
2018-12-27T07:41:04.380Z,27.64
2018-12-27T07:42:03.199Z,27.75
2018-12-27T07:43:03.402Z,27.61
2018-12-27T07:44:03.158Z,29.74
2018-12-27T07:45:02.888Z,28.54
2018-12-27T07:46:11.243Z,29.08
2018-12-27T07:47:03.854Z,28.43
2018-12-27T07:48:03.571Z,27.19
2018-12-27T07:49:03.390Z,27.27
2018-12-27T07:50:03.301Z,26.93
2018-12-27T07:51:03.867Z,27.59
2018-12-27T07:52:03.056Z,28.34
2018-12-27T07:53:03.798Z,26.25
2018-12-27T07:54:03.223Z,30.36
2018-12-27T07:55:03.605Z,27.05
2018-12-27T07:56:03.460Z,28.22
2018-12-27T07:57:03.264Z,28.47
2018-12-27T07:58:03.903Z,26.35
2018-12-27T07:59:03.736Z,27.94
2018-12-27T08:00:03.923Z,28.75
2018-12-27T08:01:03.073Z,29.79
2018-12-27T08:02:03.238Z,30.31
2018-12-27T08:03:03.813Z,27.88
2018-12-27T08:04:03.224Z,26.92
2018-12-27T08:05:04.738Z,30.12
2018-12-27T08:06:03.263Z,27.46
2018-12-27T08:07:03.792Z,27.26
2018-12-27T08:08:03.344Z,27.26
2018-12-27T08:09:03.165Z,30.89
2018-12-27T08:10:03.256Z,28.04
2018-12-27T08:11:02.838Z,26.26
2018-12-27T08:12:03.137Z,28.52
2018-12-27T08:13:03.504Z,28.88
2018-12-27T08:14:03.735Z,27.88
2018-12-27T08:15:03.821Z,28.39
2018-12-27T08:16:03.645Z,26.4
2018-12-27T08:17:03.329Z,28.33
2018-12-27T08:18:03.821Z,29.07
2018-12-27T08:19:03.222Z,28.33
2018-12-27T08:20:03.490Z,27.24
2018-12-27T08:21:03.681Z,28.46
2018-12-27T08:22:03.639Z,26.84
2018-12-27T08:23:03.535Z,28.08
2018-12-27T08:24:03.451Z,27.66
2018-12-27T08:25:03.239Z,27.8
2018-12-27T08:26:03.302Z,26.71
2018-12-27T08:27:03.467Z,27.81
2018-12-27T08:28:02.830Z,28.86
2018-12-27T08:29:03.442Z,27.28
2018-12-27T08:30:02.996Z,26.03
2018-12-27T08:31:03.667Z,25.14
2018-12-27T08:32:02.770Z,27.06
2018-12-27T08:33:03.519Z,28.56
2018-12-27T08:34:03.419Z,26.5
2018-12-27T08:35:02.703Z,27.24
2018-12-27T08:36:03.667Z,25.55
2018-12-27T08:37:03.479Z,26.9
2018-12-27T08:38:03.792Z,27.21
2018-12-27T08:39:03.776Z,27.12
2018-12-27T08:40:03.039Z,27.06
2018-12-27T08:41:03.071Z,30.26
2018-12-27T08:42:02.957Z,27.51
2018-12-27T08:43:03.076Z,26.96
2018-12-27T08:44:03.442Z,26.64
2018-12-27T08:45:03.495Z,28.02
2018-12-27T08:46:02.941Z,26.84
2018-12-27T08:47:03.731Z,28.99
2018-12-27T08:48:03.615Z,28.65
2018-12-27T08:49:03.623Z,27.47
2018-12-27T08:50:03.011Z,26.58
2018-12-27T08:51:03.810Z,26.29
2018-12-27T08:52:03.889Z,29.2
2018-12-27T08:53:03.200Z,28.32
2018-12-27T08:54:04.074Z,29.05
2018-12-27T08:55:04.050Z,29.4
2018-12-27T08:56:03.669Z,29.4
2018-12-27T08:57:03.258Z,29.73
2018-12-27T08:58:05.160Z,26.88
2018-12-27T08:59:03.176Z,28.65
2018-12-27T09:00:03.916Z,28.58
2018-12-27T09:01:03.872Z,27.46
2018-12-27T09:02:03.116Z,26.48
2018-12-27T09:03:03.634Z,27.4
2018-12-27T09:04:02.594Z,27.32
2018-12-27T09:05:03.538Z,26.69
2018-12-27T09:06:04.538Z,27.41
2018-12-27T09:07:04.325Z,27.01
2018-12-27T09:08:03.869Z,26.67
2018-12-27T09:09:03.814Z,26.48
2018-12-27T09:10:03.448Z,26.82
2018-12-27T09:11:02.774Z,27.89
2018-12-27T09:12:03.971Z,27.47
2018-12-27T09:13:03.098Z,28.11
2018-12-27T09:14:03.174Z,27.24
2018-12-27T09:15:03.450Z,25.25
2018-12-27T09:16:03.468Z,27.67
2018-12-27T09:17:03.687Z,28.21
2018-12-27T09:18:03.298Z,26.77
2018-12-27T09:19:03.448Z,26.25
2018-12-27T09:20:02.927Z,27.14
2018-12-27T09:21:03.212Z,27.25
2018-12-27T09:22:05.332Z,26.51
2018-12-27T09:23:04.845Z,27.24
2018-12-27T09:24:02.975Z,28.21
2018-12-27T09:25:03.120Z,27.13
2018-12-27T09:26:03.871Z,27.58
2018-12-27T09:27:03.898Z,26.08
2018-12-27T09:28:03.497Z,27.86
2018-12-27T09:29:03.513Z,26.11
2018-12-27T09:30:03.700Z,25.37
2018-12-27T09:31:03.328Z,27.2
2018-12-27T09:32:03.500Z,27.14
2018-12-27T09:33:03.502Z,26.83
2018-12-27T09:34:03.743Z,26.37
2018-12-27T09:35:03.460Z,28.12
2018-12-27T09:36:04.988Z,25.54
2018-12-27T09:37:03.830Z,26.68
2018-12-27T09:38:03.508Z,25.29
2018-12-27T09:39:04.001Z,25.52
2018-12-27T09:40:03.380Z,26.94
2018-12-27T09:41:03.355Z,25.57
2018-12-27T09:42:03.714Z,26.39
2018-12-27T09:43:03.245Z,26.08
2018-12-27T09:44:03.730Z,25.48
2018-12-27T09:45:03.216Z,25.48
2018-12-27T09:46:03.826Z,25.69
2018-12-27T09:47:06.329Z,26.31
2018-12-27T09:48:03.429Z,26.31
2018-12-27T09:49:03.115Z,26.22
2018-12-27T09:50:03.713Z,26.29
2018-12-27T09:51:03.687Z,24.69
2018-12-27T09:52:02.884Z,25.66
2018-12-27T09:53:03.557Z,27.86
2018-12-27T09:54:03.961Z,25.34
2018-12-27T09:55:03.350Z,24.38
2018-12-27T09:56:03.128Z,26.64
2018-12-27T09:57:03.536Z,25.54
2018-12-27T09:58:03.750Z,25.43
2018-12-27T09:59:03.191Z,25.43
2018-12-27T10:00:03.136Z,25.91
2018-12-27T10:01:03.059Z,23.71
2018-12-27T10:02:02.851Z,25.65
2018-12-27T10:03:03.453Z,26.15
2018-12-27T10:04:03.904Z,23.93
2018-12-27T10:05:03.710Z,23.45
2018-12-27T10:06:04.718Z,24.74
2018-12-27T10:07:03.335Z,25.42
2018-12-27T10:08:02.933Z,25.28
2018-12-27T10:09:03.310Z,25.84
2018-12-27T10:10:03.772Z,24.72
2018-12-27T10:11:03.036Z,23.95
2018-12-27T10:12:04.437Z,25.1
2018-12-27T10:13:03.206Z,23.42
2018-12-27T10:14:02.973Z,21.96
2018-12-27T10:15:04.116Z,22.7
2018-12-27T10:16:03.668Z,20.74
2018-12-27T10:17:03.499Z,22.61
2018-12-27T10:18:03.696Z,23.19
2018-12-27T10:19:03.118Z,22.68
2018-12-27T10:20:03.693Z,22.36
2018-12-27T10:21:03.234Z,21.55
2018-12-27T10:22:03.720Z,23.87
2018-12-27T10:23:03.151Z,23.48
2018-12-27T10:24:03.523Z,22.01
2018-12-27T10:25:03.531Z,20.91
2018-12-27T10:26:03.476Z,21.88
2018-12-27T10:27:03.661Z,20.38
2018-12-27T10:28:03.725Z,21.9
2018-12-27T10:29:04.096Z,22.28
2018-12-27T10:30:03.204Z,20.36
2018-12-27T10:31:03.072Z,20.46
2018-12-27T10:32:03.690Z,22.72
2018-12-27T10:33:03.603Z,20.59
2018-12-27T10:34:03.632Z,20.35
2018-12-27T10:35:04.273Z,20.12
2018-12-27T10:36:03.835Z,20.12
2018-12-27T10:37:03.238Z,20.75
2018-12-27T10:38:03.433Z,20.84
2018-12-27T10:39:03.059Z,19.94
2018-12-27T10:40:03.562Z,20.51
2018-12-27T10:41:03.011Z,20.14
2018-12-27T10:42:03.598Z,20.03
2018-12-27T10:43:03.016Z,21.34
2018-12-27T10:44:03.669Z,20.38
2018-12-27T10:45:03.641Z,21.46
2018-12-27T10:46:03.814Z,20.04
2018-12-27T10:47:03.129Z,19.91
2018-12-27T10:48:03.483Z,19.71
2018-12-27T10:49:03.664Z,19.01
2018-12-27T10:50:03.311Z,18.74
2018-12-27T10:51:03.712Z,19.76
2018-12-27T10:52:03.425Z,17.99
2018-12-27T10:53:03.451Z,18.17
2018-12-27T10:54:03.034Z,19.65
2018-12-27T10:55:03.556Z,17.88
2018-12-27T10:56:03.102Z,18.03
2018-12-27T10:57:03.543Z,17.96
2018-12-27T10:58:03.882Z,18.07
2018-12-27T10:59:03.052Z,18.54
2018-12-27T11:00:03.747Z,19.48
2018-12-27T11:01:02.967Z,18.35
2018-12-27T11:02:03.743Z,18.24
2018-12-27T11:03:03.255Z,19.54
2018-12-27T11:04:03.658Z,20.45
2018-12-27T11:05:03.620Z,19.81
2018-12-27T11:06:03.639Z,18.66
2018-12-27T11:07:03.153Z,19.47
2018-12-27T11:08:03.581Z,19.95
2018-12-27T11:09:03.116Z,19.81
2018-12-27T11:10:04.573Z,19.15
2018-12-27T11:11:03.818Z,18.72
2018-12-27T11:12:03.565Z,18.7
2018-12-27T11:13:03.065Z,19.46
2018-12-27T11:14:03.470Z,18.99
2018-12-27T11:15:03.341Z,17.99
2018-12-27T11:16:03.503Z,18.63
2018-12-27T11:17:03.876Z,19.18
2018-12-27T11:18:03.558Z,18.31
2018-12-27T11:19:03.957Z,17.99
2018-12-27T11:20:03.400Z,19.06
2018-12-27T11:21:02.982Z,17.48
2018-12-27T11:22:03.180Z,19.22
2018-12-27T11:23:03.967Z,20.15
2018-12-27T11:24:03.213Z,19.2
2018-12-27T11:25:03.170Z,19.2
2018-12-27T11:26:03.635Z,16.71
2018-12-27T11:27:04.071Z,19.14
2018-12-27T11:28:03.189Z,19.14
2018-12-27T11:29:03.782Z,21.19
2018-12-27T11:30:04.806Z,18.54
2018-12-27T11:31:03.607Z,17.48
2018-12-27T11:32:03.048Z,18.04
2018-12-27T11:33:03.568Z,18.4
2018-12-27T11:34:02.978Z,16.96
2018-12-27T11:35:03.758Z,17.59
2018-12-27T11:36:04.042Z,18.48
2018-12-27T11:37:03.488Z,18.23
2018-12-27T11:38:03.209Z,16.85
2018-12-27T11:39:03.563Z,17.08
2018-12-27T11:40:03.258Z,17.35
2018-12-27T11:41:03.659Z,17.4
2018-12-27T11:42:03.356Z,17.75
2018-12-27T11:43:03.734Z,16.82
2018-12-27T11:44:03.052Z,17.22
2018-12-27T11:45:05.546Z,18.05
2018-12-27T11:46:03.314Z,16.08
2018-12-27T11:47:03.286Z,16.82
2018-12-27T11:48:03.968Z,18.34
2018-12-27T11:49:03.734Z,17.64
2018-12-27T11:50:03.185Z,17.88
2018-12-27T11:51:03.436Z,17.52
2018-12-27T11:52:03.949Z,17.39
2018-12-27T11:53:03.247Z,19.06
2018-12-27T11:54:02.874Z,17.85
2018-12-27T11:55:08.018Z,18.31
2018-12-27T11:56:03.906Z,17.85
2018-12-27T11:57:03.362Z,16.72
2018-12-27T11:58:03.761Z,19.03
2018-12-27T11:59:03.251Z,17.98
2018-12-27T12:00:03.765Z,19.04
2018-12-27T12:01:03.907Z,19.08
2018-12-27T12:02:03.107Z,17.93
2018-12-27T12:03:03.627Z,17.42
2018-12-27T12:04:03.914Z,18.05
2018-12-27T12:05:03.764Z,18.92
2018-12-27T12:06:03.785Z,18.45
2018-12-27T12:07:03.635Z,19.9
2018-12-27T12:08:04.051Z,20.02
2018-12-27T12:09:03.091Z,20.22
2018-12-27T12:10:03.726Z,17.93
2018-12-27T12:11:03.541Z,18.94
2018-12-27T12:12:03.799Z,18.17
2018-12-27T12:13:03.279Z,18.36
2018-12-27T12:14:03.854Z,18.36
2018-12-27T12:15:04.717Z,18.52
2018-12-27T12:16:04.128Z,18.25
2018-12-27T12:17:02.964Z,18.25
2018-12-27T12:18:03.686Z,18.07
2018-12-27T12:19:03.217Z,18.45
2018-12-27T12:20:04.635Z,18.44
2018-12-27T12:21:03.148Z,17.02
2018-12-27T12:22:03.511Z,18.14
2018-12-27T12:23:04.013Z,18.99
2018-12-27T12:24:02.911Z,17.27
2018-12-27T12:25:03.065Z,16.81
2018-12-27T12:26:03.356Z,17.69
2018-12-27T12:27:03.043Z,18.01
2018-12-27T12:28:03.559Z,17.32
2018-12-27T12:29:03.796Z,16.27
2018-12-27T12:30:03.198Z,17.48
2018-12-27T12:31:03.865Z,18.48
2018-12-27T12:32:03.439Z,18.28
2018-12-27T12:33:03.732Z,18.71
2018-12-27T12:34:03.075Z,17.05
2018-12-27T12:35:03.919Z,18.93
2018-12-27T12:36:11.080Z,16.85
2018-12-27T12:37:03.945Z,17.74
2018-12-27T12:38:02.889Z,17.21
2018-12-27T12:39:03.191Z,17.51
2018-12-27T12:40:03.589Z,16.9
2018-12-27T12:41:03.052Z,17.69
2018-12-27T12:42:03.809Z,17.55
2018-12-27T12:43:03.191Z,18.41
2018-12-27T12:44:03.127Z,17.94
2018-12-27T12:45:03.954Z,19.47
2018-12-27T12:46:03.760Z,18
2018-12-27T12:47:03.827Z,20.33
2018-12-27T12:48:03.143Z,17.45
2018-12-27T12:49:03.892Z,17.35
2018-12-27T12:50:03.436Z,17.55
2018-12-27T12:51:03.646Z,20.06
2018-12-27T12:52:02.789Z,19.35
2018-12-27T12:53:03.810Z,18.6
2018-12-27T12:54:03.183Z,18.98